sensor_id;sensor_type;location;lat;lon;timestamp;pressure;altitude;pressure_sealevel;temperature;humidity
50650;BME280;36621;60.058;30.346;2023-02-19T06:04:54;98752.81;;;-3.79;69.98
50650;BME280;36621;60.058;30.346;2023-02-19T07:51:48;98785.28;;;-2.34;68.81
50650;BME280;36621;60.058;30.346;2023-02-19T07:59:33;98679.31;;;-2.92;68.44
50650;BME280;36621;60.058;30.346;2023-02-19T08:07:08;98777.91;;;-2.15;68.81
50650;BME280;36621;60.058;30.346;2023-02-19T08:14:45;98789.53;;;-1.80;68.08
50650;BME280;36621;60.058;30.346;2023-02-19T08:22:20;98793.00;;;-2.08;67.79
50650;BME280;36621;60.058;30.346;2023-02-19T08:29:55;98746.00;;;-2.45;67.07
50650;BME280;36621;60.058;30.346;2023-02-19T08:37:31;98843.19;;;-1.99;67.58
50650;BME280;36621;60.058;30.346;2023-02-19T08:45:08;98837.63;;;-1.97;67.58
50650;BME280;36621;60.058;30.346;2023-02-19T08:52:41;98839.16;;;-2.13;66.39
50650;BME280;36621;60.058;30.346;2023-02-19T09:00:14;98834.28;;;-2.16;66.45
50650;BME280;36621;60.058;30.346;2023-02-19T09:07:48;98764.38;;;-2.60;66.62
50650;BME280;36621;60.058;30.346;2023-02-19T09:15:24;98660.31;;;-3.20;65.72
50650;BME280;36621;60.058;30.346;2023-02-19T09:23:13;98804.97;;;-2.11;65.73
50650;BME280;36621;60.058;30.346;2023-02-19T09:30:45;98830.88;;;-2.00;64.64
50650;BME280;36621;60.058;30.346;2023-02-19T09:38:21;98853.44;;;-2.07;65.21
50650;BME280;36621;60.058;30.346;2023-02-19T09:45:59;98834.63;;;-2.13;64.02
50650;BME280;36621;60.058;30.346;2023-02-19T09:53:40;98904.09;;;-1.77;65.16
50650;BME280;36621;60.058;30.346;2023-02-19T10:01:12;98904.19;;;-1.72;64.12
50650;BME280;36621;60.058;30.346;2023-02-19T10:08:47;98903.28;;;-1.78;63.45
50650;BME280;36621;60.058;30.346;2023-02-19T10:16:27;98896.09;;;-2.01;64.36
50650;BME280;36621;60.058;30.346;2023-02-19T10:24:14;98912.59;;;-1.80;63.49
50650;BME280;36621;60.058;30.346;2023-02-19T10:32:13;98806.44;;;-2.68;63.78
50650;BME280;36621;60.058;30.346;2023-02-19T10:40:21;98822.47;;;-2.44;63.15
50650;BME280;36621;60.058;30.346;2023-02-19T10:48:02;98811.19;;;-2.46;63.29
50650;BME280;36621;60.058;30.346;2023-02-19T10:55:42;98872.16;;;-1.96;63.82
50650;BME280;36621;60.058;30.346;2023-02-19T11:04:28;98735.88;;;-2.95;63.45
50650;BME280;36621;60.058;30.346;2023-02-19T11:21:30;98937.25;;;-1.78;63.26
50650;BME280;36621;60.058;30.346;2023-02-19T11:32:08;98709.41;;;-3.09;63.38
50650;BME280;36621;60.058;30.346;2023-02-19T11:56:38;98973.50;;;-1.59;63.92
50650;BME280;36621;60.058;30.346;2023-02-19T12:04:49;98963.97;;;-1.54;63.36
50650;BME280;36621;60.058;30.346;2023-02-19T12:12:49;98745.47;;;-2.71;63.40
50650;BME280;36621;60.058;30.346;2023-02-19T12:20:55;99000.06;;;-1.16;62.84
50650;BME280;36621;60.058;30.346;2023-02-19T12:29:07;98978.88;;;-1.18;63.51
50650;BME280;36621;60.058;30.346;2023-02-19T12:45:57;98771.97;;;-2.93;62.85
50650;BME280;36621;60.058;30.346;2023-02-19T12:54:02;98790.44;;;-2.91;62.63
50650;BME280;36621;60.058;30.346;2023-02-19T13:02:37;98778.69;;;-3.26;63.77
50650;BME280;36621;60.058;30.346;2023-02-19T13:10:31;99044.59;;;-1.51;63.26
50650;BME280;36621;60.058;30.346;2023-02-19T13:18:12;98914.16;;;-2.67;62.83
50650;BME280;36621;60.058;30.346;2023-02-19T13:25:59;99055.19;;;-1.92;62.49
50650;BME280;36621;60.058;30.346;2023-02-19T13:33:44;99074.53;;;-1.66;62.66
50650;BME280;36621;60.058;30.346;2023-02-19T13:41:27;99081.13;;;-1.45;62.64
50650;BME280;36621;60.058;30.346;2023-02-19T13:49:40;99094.75;;;-1.58;62.68
50650;BME280;36621;60.058;30.346;2023-02-19T13:57:25;99083.81;;;-1.57;63.05
50650;BME280;36621;60.058;30.346;2023-02-19T14:05:02;99105.34;;;-1.40;62.23
50650;BME280;36621;60.058;30.346;2023-02-19T14:12:36;99106.63;;;-1.42;62.65
50650;BME280;36621;60.058;30.346;2023-02-19T14:20:40;99057.31;;;-1.70;63.57
50650;BME280;36621;60.058;30.346;2023-02-19T14:28:20;99127.44;;;-1.68;63.87
50650;BME280;36621;60.058;30.346;2023-02-19T14:35:59;99111.28;;;-1.85;64.39
50650;BME280;36621;60.058;30.346;2023-02-19T15:01:27;99039.84;;;-2.62;65.60
50650;BME280;36621;60.058;30.346;2023-02-19T15:09:03;98901.31;;;-3.80;65.58
50650;BME280;36621;60.058;30.346;2023-02-19T15:16:44;99117.47;;;-2.57;66.18
50650;BME280;36621;60.058;30.346;2023-02-19T15:32:38;98974.41;;;-3.62;65.67
50650;BME280;36621;60.058;30.346;2023-02-19T15:40:13;99159.56;;;-2.71;66.01
50650;BME280;36621;60.058;30.346;2023-02-19T15:47:55;99206.69;;;-2.39;65.60
50650;BME280;36621;60.058;30.346;2023-02-19T15:55:34;99194.94;;;-2.38;65.58
50650;BME280;36621;60.058;30.346;2023-02-19T16:03:35;99064.75;;;-3.29;65.27
50650;BME280;36621;60.058;30.346;2023-02-19T16:11:27;99125.59;;;-2.82;65.21
50650;BME280;36621;60.058;30.346;2023-02-19T16:19:31;99061.63;;;-3.44;65.93
50650;BME280;36621;60.058;30.346;2023-02-19T16:27:06;99149.06;;;-3.03;65.65
50650;BME280;36621;60.058;30.346;2023-02-19T16:34:42;99257.59;;;-2.34;66.54
50650;BME280;36621;60.058;30.346;2023-02-19T16:42:20;99266.97;;;-2.25;65.95
50650;BME280;36621;60.058;30.346;2023-02-19T16:49:54;99177.38;;;-2.65;66.25
50650;BME280;36621;60.058;30.346;2023-02-19T16:57:43;99274.16;;;-2.25;66.41
50650;BME280;36621;60.058;30.346;2023-02-19T17:05:22;99285.63;;;-2.55;67.04
50650;BME280;36621;60.058;30.346;2023-02-19T17:12:56;99250.66;;;-2.98;67.74
50650;BME280;36621;60.058;30.346;2023-02-19T17:20:33;99263.22;;;-2.98;67.45
50650;BME280;36621;60.058;30.346;2023-02-19T17:28:08;99227.06;;;-3.44;67.48
50650;BME280;36621;60.058;30.346;2023-02-19T17:35:44;99265.00;;;-2.92;67.34
50650;BME280;36621;60.058;30.346;2023-02-19T17:43:18;99326.25;;;-2.72;66.95
50650;BME280;36621;60.058;30.346;2023-02-19T17:50:51;99272.75;;;-2.84;66.44
50650;BME280;36621;60.058;30.346;2023-02-19T17:58:23;99257.88;;;-2.98;66.34
50650;BME280;36621;60.058;30.346;2023-02-19T18:06:17;99329.94;;;-2.29;66.88
50650;BME280;36621;60.058;30.346;2023-02-19T18:13:51;99207.00;;;-3.28;67.33
50650;BME280;36621;60.058;30.346;2023-02-19T18:29:20;99353.28;;;-2.80;67.68
50650;BME280;36621;60.058;30.346;2023-02-19T18:36:54;99392.34;;;-2.86;67.31
50650;BME280;36621;60.058;30.346;2023-02-19T18:44:30;99331.47;;;-3.34;68.08
50650;BME280;36621;60.058;30.346;2023-02-19T18:52:03;99377.50;;;-3.39;67.28
50650;BME280;36621;60.058;30.346;2023-02-19T18:59:39;99385.31;;;-3.44;67.10
50650;BME280;36621;60.058;30.346;2023-02-19T19:07:12;99416.16;;;-3.48;66.98
50650;BME280;36621;60.058;30.346;2023-02-19T19:14:45;99306.78;;;-4.39;67.05
50650;BME280;36621;60.058;30.346;2023-02-19T19:22:17;99420.88;;;-3.50;67.07
50650;BME280;36621;60.058;30.346;2023-02-19T19:29:54;99437.19;;;-3.26;66.63
